sensor_id;sensor_type;location;lat;lon;timestamp;pressure;altitude;pressure_sealevel;temperature;humidity
4745;BME280;2386;42.138;24.746;2023-04-30T00:02:10;99311.56;;;16.31;72.34
4745;BME280;2386;42.138;24.746;2023-04-30T00:04:35;99305.00;;;16.32;71.68
4745;BME280;2386;42.138;24.746;2023-04-30T00:07:01;99310.44;;;16.37;72.41
4745;BME280;2386;42.138;24.746;2023-04-30T00:09:26;99307.72;;;16.32;72.93
4745;BME280;2386;42.138;24.746;2023-04-30T00:11:52;99297.88;;;16.31;72.40
4745;BME280;2386;42.138;24.746;2023-04-30T00:14:17;99303.31;;;16.36;72.69
4745;BME280;2386;42.138;24.746;2023-04-30T00:16:42;99302.25;;;16.32;73.38
4745;BME280;2386;42.138;24.746;2023-04-30T00:19:08;99302.25;;;16.32;73.85
4745;BME280;2386;42.138;24.746;2023-04-30T00:21:33;99294.06;;;16.27;73.20
4745;BME280;2386;42.138;24.746;2023-04-30T00:23:59;99302.22;;;16.37;73.08
4745;BME280;2386;42.138;24.746;2023-04-30T00:26:25;99301.72;;;16.30;73.59
4745;BME280;2386;42.138;24.746;2023-04-30T00:28:50;99301.72;;;16.30;75.19
4745;BME280;2386;42.138;24.746;2023-04-30T00:31:16;99302.28;;;16.22;75.53
4745;BME280;2386;42.138;24.746;2023-04-30T00:33:41;99314.31;;;16.26;74.88
4745;BME280;2386;42.138;24.746;2023-04-30T00:36:07;99310.47;;;16.27;73.72
4745;BME280;2386;42.138;24.746;2023-04-30T00:38:32;99301.16;;;16.28;73.59
4745;BME280;2386;42.138;24.746;2023-04-30T00:40:57;99311.81;;;16.35;72.47
4745;BME280;2386;42.138;24.746;2023-04-30T00:43:23;99311.56;;;16.31;71.14
4745;BME280;2386;42.138;24.746;2023-04-30T00:45:48;99308.56;;;16.28;70.91
4745;BME280;2386;42.138;24.746;2023-04-30T00:48:14;99310.75;;;16.31;69.59
4745;BME280;2386;42.138;24.746;2023-04-30T00:50:40;99313.22;;;16.32;71.17
4745;BME280;2386;42.138;24.746;2023-04-30T00:53:08;99311.03;;;16.24;72.14
4745;BME280;2386;42.138;24.746;2023-04-30T00:55:34;99300.63;;;16.26;71.04
4745;BME280;2386;42.138;24.746;2023-04-30T00:58:00;99293.50;;;16.20;71.80
4745;BME280;2386;42.138;24.746;2023-04-30T01:00:26;99304.72;;;16.29;71.94
4745;BME280;2386;42.138;24.746;2023-04-30T01:02:52;99293.78;;;16.24;72.00
4745;BME280;2386;42.138;24.746;2023-04-30T01:05:18;99295.16;;;16.21;71.81
4745;BME280;2386;42.138;24.746;2023-04-30T01:07:44;99291.88;;;16.19;72.05
4745;BME280;2386;42.138;24.746;2023-04-30T01:10:12;99290.50;;;16.17;71.35
4745;BME280;2386;42.138;24.746;2023-04-30T01:12:44;99290.50;;;16.12;71.66
4745;BME280;2386;42.138;24.746;2023-04-30T01:21:00;99297.91;;;16.06;70.77
4745;BME280;2386;42.138;24.746;2023-04-30T01:29:19;99305.84;;;15.87;68.61
4745;BME280;2386;42.138;24.746;2023-04-30T01:31:44;99286.41;;;15.94;68.53
4745;BME280;2386;42.138;24.746;2023-04-30T01:34:10;99294.06;;;15.87;68.59
4745;BME280;2386;42.138;24.746;2023-04-30T01:37:04;99300.63;;;15.81;69.02
4745;BME280;2386;42.138;24.746;2023-04-30T01:45:31;99294.00;;;15.36;71.92
4745;BME280;2386;42.138;24.746;2023-04-30T01:47:40;99283.34;;;15.39;72.43
4745;BME280;2386;42.138;24.746;2023-04-30T01:52:58;99286.09;;;15.50;72.92
4745;BME280;2386;42.138;24.746;2023-04-30T01:55:39;99288.53;;;15.36;72.64
4745;BME280;2386;42.138;24.746;2023-04-30T01:58:06;99280.91;;;15.53;72.84
4745;BME280;2386;42.138;24.746;2023-04-30T02:00:34;99272.97;;;15.41;74.24
4745;BME280;2386;42.138;24.746;2023-04-30T02:02:59;99285.81;;;15.46;74.05
4745;BME280;2386;42.138;24.746;2023-04-30T02:05:25;99282.56;;;15.54;72.48
4745;BME280;2386;42.138;24.746;2023-04-30T02:07:51;99268.34;;;15.47;72.66
4745;BME280;2386;42.138;24.746;2023-04-30T02:10:19;99275.44;;;15.53;71.92
4745;BME280;2386;42.138;24.746;2023-04-30T02:12:45;99272.97;;;15.52;71.93
4745;BME280;2386;42.138;24.746;2023-04-30T02:15:11;99279.81;;;15.54;72.50
4745;BME280;2386;42.138;24.746;2023-04-30T02:17:36;99277.09;;;15.54;71.79
4745;BME280;2386;42.138;24.746;2023-04-30T02:20:02;99282.00;;;15.52;71.30
4745;BME280;2386;42.138;24.746;2023-04-30T02:22:27;99281.72;;;15.54;70.95
4745;BME280;2386;42.138;24.746;2023-04-30T02:24:53;99278.72;;;15.55;70.33
4745;BME280;2386;42.138;24.746;2023-04-30T02:27:21;99279.53;;;15.51;71.19
4745;BME280;2386;42.138;24.746;2023-04-30T02:29:47;99286.94;;;15.50;71.48
4745;BME280;2386;42.138;24.746;2023-04-30T02:32:13;99281.19;;;15.47;72.03
4745;BME280;2386;42.138;24.746;2023-04-30T02:34:39;99289.09;;;15.48;72.89
4745;BME280;2386;42.138;24.746;2023-04-30T02:37:05;99272.44;;;15.50;72.08
4745;BME280;2386;42.138;24.746;2023-04-30T02:39:30;99280.38;;;15.51;72.30
4745;BME280;2386;42.138;24.746;2023-04-30T02:41:56;99280.09;;;15.48;72.88
4745;BME280;2386;42.138;24.746;2023-04-30T02:44:21;99273.53;;;15.49;72.74
4745;BME280;2386;42.138;24.746;2023-04-30T02:46:46;99272.16;;;15.51;72.26
4745;BME280;2386;42.138;24.746;2023-04-30T02:49:12;99277.38;;;15.53;71.77
4745;BME280;2386;42.138;24.746;2023-04-30T02:51:37;99271.06;;;15.52;72.08
4745;BME280;2386;42.138;24.746;2023-04-30T02:54:02;99272.72;;;15.53;72.64
4745;BME280;2386;42.138;24.746;2023-04-30T02:56:28;99277.38;;;15.53;72.20
4745;BME280;2386;42.138;24.746;2023-04-30T02:58:53;99279.00;;;15.43;72.42
4745;BME280;2386;42.138;24.746;2023-04-30T03:01:19;99270.50;;;15.45;71.28
4745;BME280;2386;42.138;24.746;2023-04-30T03:03:44;99274.06;;;15.45;69.68
4745;BME280;2386;42.138;24.746;2023-04-30T03:06:09;99291.31;;;15.51;68.44
4745;BME280;2386;42.138;24.746;2023-04-30T03:08:35;99295.94;;;15.51;68.43
4745;BME280;2386;42.138;24.746;2023-04-30T03:11:00;99286.84;;;15.20;73.62
4745;BME280;2386;42.138;24.746;2023-04-30T03:13:25;99289.31;;;15.21;77.25
4745;BME280;2386;42.138;24.746;2023-04-30T03:15:58;99296.16;;;15.24;79.41
4745;BME280;2386;42.138;24.746;2023-04-30T03:18:24;99301.59;;;15.13;82.86
4745;BME280;2386;42.138;24.746;2023-04-30T03:20:49;99287.94;;;15.19;83.74
4745;BME280;2386;42.138;24.746;2023-04-30T03:23:15;99287.16;;;15.28;85.91
4745;BME280;2386;42.138;24.746;2023-04-30T03:25:40;99294.81;;;15.36;86.84
4745;BME280;2386;42.138;24.746;2023-04-30T03:28:06;99300.00;;;15.33;87.01
4745;BME280;2386;42.138;24.746;2023-04-30T03:30:31;99300.25;;;15.26;88.24
4745;BME280;2386;42.138;24.746;2023-04-30T03:32:57;99285.16;;;14.98;89.50
4745;BME280;2386;42.138;24.746;2023-04-30T03:35:22;99297.19;;;15.02;90.30
4745;BME280;2386;42.138;24.746;2023-04-30T03:37:47;99322.34;;;15.09;90.53
4745;BME280;2386;42.138;24.746;2023-04-30T03:40:13;99317.44;;;15.17;90.31
4745;BME280;2386;42.138;24.746;2023-04-30T03:42:38;99321.59;;;15.29;90.24
4745;BME280;2386;42.138;24.746;2023-04-30T03:45:04;99324.59;;;15.28;89.54
4745;BME280;2386;42.138;24.746;2023-04-30T03:47:30;99315.84;;;15.26;88.54
4745;BME280;2386;42.138;24.746;2023-04-30T03:49:55;99322.13;;;15.26;88.97
4745;BME280;2386;42.138;24.746;2023-04-30T03:52:21;99331.63;;;15.08;90.32
4745;BME280;2386;42.138;24.746;2023-04-30T03:54:46;99337.03;;;14.98;91.52
4745;BME280;2386;42.138;24.746;2023-04-30T03:57:12;99340.38;;;15.16;91.75
4745;BME280;2386;42.138;24.746;2023-04-30T03:59:39;99332.63;;;14.92;93.78
4745;BME280;2386;42.138;24.746;2023-04-30T04:02:04;99339.25;;;15.01;93.67
4745;BME280;2386;42.138;24.746;2023-04-30T04:04:30;99339.25;;;15.06;93.90
4745;BME280;2386;42.138;24.746;2023-04-30T04:06:56;99337.09;;;15.08;93.37
4745;BME280;2386;42.138;24.746;2023-04-30T04:09:21;99342.25;;;15.05;94.32
4745;BME280;2386;42.138;24.746;2023-04-30T04:11:47;99337.63;;;15.05;95.03
4745;BME280;2386;42.138;24.746;2023-04-30T04:14:13;99343.09;;;15.05;96.21
4745;BME280;2386;42.138;24.746;2023-04-30T04:16:38;99341.69;;;15.03;96.10
4745;BME280;2386;42.138;24.746;2023-04-30T04:19:03;99350.22;;;15.17;95.79
4745;BME280;2386;42.138;24.746;2023-04-30T04:21:29;99349.13;;;15.12;95.54
4745;BME280;2386;42.138;24.746;2023-04-30T04:23:55;99346.16;;;15.24;94.22
4745;BME280;2386;42.138;24.746;2023-04-30T04:26:20;99343.69;;;15.23;93.27
4745;BME280;2386;42.138;24.746;2023-04-30T04:28:49;99338.75;;;15.20;93.32
4745;BME280;2386;42.138;24.746;2023-04-30T04:31:15;99353.53;;;15.19;95.27
4745;BME280;2386;42.138;24.746;2023-04-30T04:33:40;99354.59;;;15.18;94.77
4745;BME280;2386;42.138;24.746;2023-04-30T04:36:06;99357.91;;;15.25;93.36
4745;BME280;2386;42.138;24.746;2023-04-30T04:38:31;99344.22;;;15.20;91.51
4745;BME280;2386;42.138;24.746;2023-04-30T04:40:57;99351.91;;;15.28;93.11
4745;BME280;2386;42.138;24.746;2023-04-30T04:43:23;99353.66;;;14.92;93.47
4745;BME280;2386;42.138;24.746;2023-04-30T04:45:49;99349.84;;;14.93;94.47
4745;BME280;2386;42.138;24.746;2023-04-30T04:48:14;99349.06;;;14.97;94.41
4745;BME280;2386;42.138;24.746;2023-04-30T04:50:40;99350.13;;;14.96;93.59
4745;BME280;2386;42.138;24.746;2023-04-30T04:53:05;99350.66;;;14.93;92.33
4745;BME280;2386;42.138;24.746;2023-04-30T04:55:30;99350.19;;;15.06;91.94
4745;BME280;2386;42.138;24.746;2023-04-30T04:57:56;99352.16;;;15.21;91.82
4745;BME280;2386;42.138;24.746;2023-04-30T05:00:21;99349.22;;;15.38;89.85
4745;BME280;2386;42.138;24.746;2023-04-30T05:02:47;99355.53;;;15.43;89.86
4745;BME280;2386;42.138;24.746;2023-04-30T05:05:13;99354.16;;;15.46;90.59
4745;BME280;2386;42.138;24.746;2023-04-30T05:07:39;99361.84;;;15.54;92.65
4745;BME280;2386;42.138;24.746;2023-04-30T05:10:05;99372.38;;;15.20;100.00
4745;BME280;2386;42.138;24.746;2023-04-30T05:12:31;99366.94;;;15.25;100.00
4745;BME280;2386;42.138;24.746;2023-04-30T05:14:56;99362.50;;;15.09;100.00
4745;BME280;2386;42.138;24.746;2023-04-30T05:17:21;99366.81;;;15.00;100.00
4745;BME280;2386;42.138;24.746;2023-04-30T05:19:47;99369.25;;;14.96;100.00
4745;BME280;2386;42.138;24.746;2023-04-30T05:22:14;99364.59;;;14.92;100.00
4745;BME280;2386;42.138;24.746;2023-04-30T05:24:40;99374.78;;;15.11;100.00
4745;BME280;2386;42.138;24.746;2023-04-30T05:27:06;99363.34;;;15.20;100.00
4745;BME280;2386;42.138;24.746;2023-04-30T05:29:31;99376.78;;;15.26;99.44
4745;BME280;2386;42.138;24.746;2023-04-30T05:31:57;99364.00;;;15.42;98.29
4745;BME280;2386;42.138;24.746;2023-04-30T05:34:22;99368.66;;;15.52;89.51
4745;BME280;2386;42.138;24.746;2023-04-30T05:36:48;99365.66;;;15.48;90.19
4745;BME280;2386;42.138;24.746;2023-04-30T05:39:13;99368.38;;;15.48;87.68
4745;BME280;2386;42.138;24.746;2023-04-30T05:41:39;99368.13;;;15.55;84.90
4745;BME280;2386;42.138;24.746;2023-04-30T05:44:04;99371.66;;;15.50;86.85
4745;BME280;2386;42.138;24.746;2023-04-30T05:46:30;99368.44;;;15.58;85.52
4745;BME280;2386;42.138;24.746;2023-04-30T05:48:56;99361.59;;;15.66;86.89
4745;BME280;2386;42.138;24.746;2023-04-30T05:51:21;99377.72;;;15.62;85.54
4745;BME280;2386;42.138;24.746;2023-04-30T05:53:47;99368.72;;;15.67;86.03
4745;BME280;2386;42.138;24.746;2023-04-30T05:56:12;99370.63;;;15.66;84.51
4745;BME280;2386;42.138;24.746;2023-04-30T05:58:38;99373.41;;;15.87;82.75
4745;BME280;2386;42.138;24.746;2023-04-30T06:01:03;99371.50;;;15.92;82.64
4745;BME280;2386;42.138;24.746;2023-04-30T06:03:30;99377.53;;;16.09;82.09
4745;BME280;2386;42.138;24.746;2023-04-30T06:05:55;99365.19;;;15.97;78.73
4745;BME280;2386;42.138;24.746;2023-04-30T06:08:21;99381.91;;;16.00;80.39
4745;BME280;2386;42.138;24.746;2023-04-30T06:10:46;99373.97;;;16.09;80.58
4745;BME280;2386;42.138;24.746;2023-04-30T06:13:12;99366.84;;;15.98;82.50
4745;BME280;2386;42.138;24.746;2023-04-30T06:15:38;99388.75;;;16.08;84.89
4745;BME280;2386;42.138;24.746;2023-04-30T06:18:04;99373.97;;;16.09;84.79
4745;BME280;2386;42.138;24.746;2023-04-30T06:20:30;99389.84;;;16.22;85.49
4745;BME280;2386;42.138;24.746;2023-04-30T06:22:55;99381.91;;;16.21;81.50
4745;BME280;2386;42.138;24.746;2023-04-30T06:25:21;99381.09;;;16.25;80.92
4745;BME280;2386;42.138;24.746;2023-04-30T06:27:46;99380.53;;;16.33;81.64
4745;BME280;2386;42.138;24.746;2023-04-30T06:30:12;99388.72;;;16.43;80.29
4745;BME280;2386;42.138;24.746;2023-04-30T06:32:37;99388.72;;;16.49;81.33
4745;BME280;2386;42.138;24.746;2023-04-30T06:35:03;99381.88;;;16.41;80.96
4745;BME280;2386;42.138;24.746;2023-04-30T06:37:29;99382.16;;;16.50;80.31
4745;BME280;2386;42.138;24.746;2023-04-30T06:39:54;99384.88;;;16.60;79.82
4745;BME280;2386;42.138;24.746;2023-04-30T06:42:20;99374.50;;;16.67;79.04
4745;BME280;2386;42.138;24.746;2023-04-30T06:44:45;99375.59;;;16.71;77.69
4745;BME280;2386;42.138;24.746;2023-04-30T06:47:11;99374.75;;;16.81;77.96
4745;BME280;2386;42.138;24.746;2023-04-30T06:49:36;99371.16;;;16.85;75.96
4745;BME280;2386;42.138;24.746;2023-04-30T06:52:02;99362.94;;;16.85;75.10
4745;BME280;2386;42.138;24.746;2023-04-30T06:54:27;99362.66;;;16.97;75.58
4745;BME280;2386;42.138;24.746;2023-04-30T06:56:53;99368.91;;;17.07;74.44
4745;BME280;2386;42.138;24.746;2023-04-30T06:59:18;99360.16;;;17.05;73.07
4745;BME280;2386;42.138;24.746;2023-04-30T07:01:44;99362.84;;;17.11;73.42
4745;BME280;2386;42.138;24.746;2023-04-30T07:04:10;99367.19;;;17.22;73.19
4745;BME280;2386;42.138;24.746;2023-04-30T07:06:35;99354.91;;;17.09;75.08
4745;BME280;2386;42.138;24.746;2023-04-30T07:09:01;99354.06;;;17.08;74.87
4745;BME280;2386;42.138;24.746;2023-04-30T07:11:26;99368.28;;;17.21;73.58
4745;BME280;2386;42.138;24.746;2023-04-30T07:13:52;99363.88;;;17.25;71.28
4745;BME280;2386;42.138;24.746;2023-04-30T07:16:17;99358.09;;;17.31;71.17
4745;BME280;2386;42.138;24.746;2023-04-30T07:18:43;99359.69;;;17.42;70.84
4745;BME280;2386;42.138;24.746;2023-04-30T07:21:08;99351.94;;;17.55;69.61
4745;BME280;2386;42.138;24.746;2023-04-30T07:23:34;99348.66;;;17.58;69.57
4745;BME280;2386;42.138;24.746;2023-04-30T07:25:59;99344.53;;;17.55;68.80
4745;BME280;2386;42.138;24.746;2023-04-30T07:28:25;99344.75;;;17.64;68.80
4745;BME280;2386;42.138;24.746;2023-04-30T07:30:50;99344.75;;;17.64;68.54
4745;BME280;2386;42.138;24.746;2023-04-30T07:33:17;99352.66;;;17.81;67.51
4745;BME280;2386;42.138;24.746;2023-04-30T07:35:42;99353.34;;;17.96;67.39
4745;BME280;2386;42.138;24.746;2023-04-30T07:38:08;99349.97;;;18.04;66.64
4745;BME280;2386;42.138;24.746;2023-04-30T07:40:33;99357.88;;;18.11;67.22
4745;BME280;2386;42.138;24.746;2023-04-30T07:42:58;99345.31;;;18.05;65.54
4745;BME280;2386;42.138;24.746;2023-04-30T07:45:24;99349.72;;;18.01;65.69
4745;BME280;2386;42.138;24.746;2023-04-30T07:47:49;99351.00;;;18.14;64.93
4745;BME280;2386;42.138;24.746;2023-04-30T07:50:15;99359.97;;;18.24;62.09
4745;BME280;2386;42.138;24.746;2023-04-30T07:52:41;99360.06;;;18.14;60.42
4745;BME280;2386;42.138;24.746;2023-04-30T07:55:07;99362.19;;;18.22;59.96
4745;BME280;2386;42.138;24.746;2023-04-30T07:57:32;99343.00;;;18.17;61.05
4745;BME280;2386;42.138;24.746;2023-04-30T07:59:57;99355.50;;;18.33;61.36
4745;BME280;2386;42.138;24.746;2023-04-30T08:02:23;99346.38;;;18.43;61.33
4745;BME280;2386;42.138;24.746;2023-04-30T08:04:48;99340.53;;;18.50;59.98
4745;BME280;2386;42.138;24.746;2023-04-30T08:07:14;99348.09;;;18.63;58.24
4745;BME280;2386;42.138;24.746;2023-04-30T08:09:42;99345.00;;;18.69;57.62
4745;BME280;2386;42.138;24.746;2023-04-30T08:12:08;99342.09;;;18.85;57.84
4745;BME280;2386;42.138;24.746;2023-04-30T08:14:34;99341.50;;;18.88;55.17
4745;BME280;2386;42.138;24.746;2023-04-30T08:16:59;99324.78;;;18.84;53.52
4745;BME280;2386;42.138;24.746;2023-04-30T08:19:26;99333.97;;;18.98;53.26
4745;BME280;2386;42.138;24.746;2023-04-30T08:21:52;99334.91;;;19.13;53.60
4745;BME280;2386;42.138;24.746;2023-04-30T08:24:17;99323.38;;;19.11;52.90
4745;BME280;2386;42.138;24.746;2023-04-30T08:26:42;99321.84;;;19.23;52.69
4745;BME280;2386;42.138;24.746;2023-04-30T08:29:08;99319.44;;;19.35;52.87
4745;BME280;2386;42.138;24.746;2023-04-30T08:31:34;99334.41;;;19.48;52.59
4745;BME280;2386;42.138;24.746;2023-04-30T08:33:59;99324.47;;;19.52;50.64
4745;BME280;2386;42.138;24.746;2023-04-30T08:36:25;99313.47;;;19.52;50.33
4745;BME280;2386;42.138;24.746;2023-04-30T08:38:51;99327.31;;;19.66;51.17
4745;BME280;2386;42.138;24.746;2023-04-30T08:41:19;99330.50;;;19.73;51.09
4745;BME280;2386;42.138;24.746;2023-04-30T08:43:47;99327.16;;;19.76;49.42
4745;BME280;2386;42.138;24.746;2023-04-30T08:46:17;99317.78;;;19.77;50.30
4745;BME280;2386;42.138;24.746;2023-04-30T08:48:42;99322.84;;;19.89;49.92
4745;BME280;2386;42.138;24.746;2023-04-30T08:51:08;99317.94;;;19.86;49.00
4745;BME280;2386;42.138;24.746;2023-04-30T08:53:34;99306.91;;;19.86;49.07
4745;BME280;2386;42.138;24.746;2023-04-30T08:56:00;99306.09;;;19.85;47.94
4745;BME280;2386;42.138;24.746;2023-04-30T08:58:26;99313.03;;;19.83;47.08
4745;BME280;2386;42.138;24.746;2023-04-30T09:00:51;99312.19;;;20.01;43.53
4745;BME280;2386;42.138;24.746;2023-04-30T09:03:16;99319.09;;;19.98;42.31
4745;BME280;2386;42.138;24.746;2023-04-30T09:05:42;99308.09;;;20.12;42.47
4745;BME280;2386;42.138;24.746;2023-04-30T09:08:08;99301.53;;;20.27;42.37
4745;BME280;2386;42.138;24.746;2023-04-30T09:10:34;99306.34;;;20.35;41.47
4745;BME280;2386;42.138;24.746;2023-04-30T09:13:07;99306.81;;;20.56;43.38
4745;BME280;2386;42.138;24.746;2023-04-30T09:15:34;99304.78;;;20.61;43.04
4745;BME280;2386;42.138;24.746;2023-04-30T09:18:14;99303.06;;;20.79;42.62
4745;BME280;2386;42.138;24.746;2023-04-30T09:21:00;99298.75;;;20.87;43.00
4745;BME280;2386;42.138;24.746;2023-04-30T09:23:27;99287.09;;;21.04;42.48
4745;BME280;2386;42.138;24.746;2023-04-30T09:25:52;99294.25;;;21.18;41.58
4745;BME280;2386;42.138;24.746;2023-04-30T09:28:18;99286.59;;;21.29;41.36
4745;BME280;2386;42.138;24.746;2023-04-30T09:30:49;99299.75;;;21.46;39.87
4745;BME280;2386;42.138;24.746;2023-04-30T09:33:15;99296.81;;;21.64;40.00
4745;BME280;2386;42.138;24.746;2023-04-30T09:35:40;99282.25;;;21.73;39.95
4745;BME280;2386;42.138;24.746;2023-04-30T09:38:06;99288.72;;;21.90;39.94
4745;BME280;2386;42.138;24.746;2023-04-30T09:40:37;99283.41;;;21.94;39.49
4745;BME280;2386;42.138;24.746;2023-04-30T09:43:03;99286.53;;;22.01;39.22
4745;BME280;2386;42.138;24.746;2023-04-30T09:45:45;99278.25;;;22.23;39.14
4745;BME280;2386;42.138;24.746;2023-04-30T09:48:17;99269.91;;;22.46;37.94
4745;BME280;2386;42.138;24.746;2023-04-30T09:50:43;99267.19;;;22.54;38.11
4745;BME280;2386;42.138;24.746;2023-04-30T09:53:10;99248.38;;;22.65;37.94
4745;BME280;2386;42.138;24.746;2023-04-30T09:55:43;99265.78;;;22.66;37.44
4745;BME280;2386;42.138;24.746;2023-04-30T09:58:10;99256.66;;;22.65;37.41
4745;BME280;2386;42.138;24.746;2023-04-30T10:00:37;99254.63;;;22.48;36.47
4745;BME280;2386;42.138;24.746;2023-04-30T10:03:11;99261.34;;;22.56;36.87
4745;BME280;2386;42.138;24.746;2023-04-30T10:05:41;99266.38;;;22.54;37.61
4745;BME280;2386;42.138;24.746;2023-04-30T10:08:14;99255.84;;;22.34;37.42
4745;BME280;2386;42.138;24.746;2023-04-30T10:10:44;99261.88;;;22.36;37.61
4745;BME280;2386;42.138;24.746;2023-04-30T10:13:17;99262.88;;;22.40;37.26
4745;BME280;2386;42.138;24.746;2023-04-30T10:15:50;99255.22;;;22.37;37.66
4745;BME280;2386;42.138;24.746;2023-04-30T10:18:21;99249.75;;;22.45;37.87
4745;BME280;2386;42.138;24.746;2023-04-30T10:20:49;99243.13;;;22.55;37.49
4745;BME280;2386;42.138;24.746;2023-04-30T10:23:18;99245.00;;;22.77;37.27
4745;BME280;2386;42.138;24.746;2023-04-30T10:25:46;99256.31;;;22.98;37.51
4745;BME280;2386;42.138;24.746;2023-04-30T10:28:11;99248.66;;;23.12;37.30
4745;BME280;2386;42.138;24.746;2023-04-30T10:30:37;99247.16;;;22.80;36.84
4745;BME280;2386;42.138;24.746;2023-04-30T10:33:14;99239.94;;;22.70;37.36
4745;BME280;2386;42.138;24.746;2023-04-30T10:35:50;99237.75;;;22.89;36.66
4745;BME280;2386;42.138;24.746;2023-04-30T10:38:21;99243.13;;;23.03;37.85
4745;BME280;2386;42.138;24.746;2023-04-30T10:40:47;99241.66;;;23.06;36.70
4745;BME280;2386;42.138;24.746;2023-04-30T10:43:13;99227.03;;;22.97;37.19
4745;BME280;2386;42.138;24.746;2023-04-30T10:45:42;99244.25;;;22.93;37.49
4745;BME280;2386;42.138;24.746;2023-04-30T10:48:08;99233.66;;;22.87;37.74
4745;BME280;2386;42.138;24.746;2023-04-30T10:50:44;99230.84;;;22.78;37.68
4745;BME280;2386;42.138;24.746;2023-04-30T10:53:16;99231.09;;;22.59;38.18
4745;BME280;2386;42.138;24.746;2023-04-30T10:56:02;99229.66;;;22.62;38.58
4745;BME280;2386;42.138;24.746;2023-04-30T10:58:36;99236.59;;;22.51;38.83
4745;BME280;2386;42.138;24.746;2023-04-30T11:01:13;99234.88;;;22.33;38.17
4745;BME280;2386;42.138;24.746;2023-04-30T11:04:06;99234.09;;;22.41;38.50
4745;BME280;2386;42.138;24.746;2023-04-30T11:09:23;99212.13;;;22.75;40.38
4745;BME280;2386;42.138;24.746;2023-04-30T11:12:02;99222.78;;;22.90;38.38
4745;BME280;2386;42.138;24.746;2023-04-30T11:14:31;99221.94;;;22.81;38.09
4745;BME280;2386;42.138;24.746;2023-04-30T11:16:58;99216.16;;;22.69;38.89
4745;BME280;2386;42.138;24.746;2023-04-30T11:19:26;99215.97;;;22.57;38.24
4745;BME280;2386;42.138;24.746;2023-04-30T11:27:30;99210.91;;;22.50;42.28
4745;BME280;2386;42.138;24.746;2023-04-30T11:29:57;99206.03;;;22.56;48.89
4745;BME280;2386;42.138;24.746;2023-04-30T11:32:25;99196.97;;;22.64;48.15
4745;BME280;2386;42.138;24.746;2023-04-30T11:34:52;99199.13;;;22.76;45.27
4745;BME280;2386;42.138;24.746;2023-04-30T11:37:29;99191.69;;;22.85;41.29
4745;BME280;2386;42.138;24.746;2023-04-30T11:39:56;99183.34;;;22.76;41.60
4745;BME280;2386;42.138;24.746;2023-04-30T11:42:24;99179.00;;;22.84;40.16
4745;BME280;2386;42.138;24.746;2023-04-30T11:44:49;99184.38;;;23.06;40.20
4745;BME280;2386;42.138;24.746;2023-04-30T11:47:15;99181.59;;;23.06;40.16
4745;BME280;2386;42.138;24.746;2023-04-30T11:49:41;99184.69;;;23.22;40.98
4745;BME280;2386;42.138;24.746;2023-04-30T11:52:07;99181.94;;;23.48;42.02
4745;BME280;2386;42.138;24.746;2023-04-30T11:54:36;99179.81;;;23.71;43.17
4745;BME280;2386;42.138;24.746;2023-04-30T11:57:02;99191.19;;;23.78;38.71
4745;BME280;2386;42.138;24.746;2023-04-30T11:59:39;99175.09;;;23.71;37.88
4745;BME280;2386;42.138;24.746;2023-04-30T12:02:06;99172.81;;;23.73;38.08
4745;BME280;2386;42.138;24.746;2023-04-30T12:04:31;99168.44;;;23.64;38.55
4745;BME280;2386;42.138;24.746;2023-04-30T12:06:59;99163.06;;;23.58;38.39
4745;BME280;2386;42.138;24.746;2023-04-30T12:09:24;99156.38;;;23.42;38.48
4745;BME280;2386;42.138;24.746;2023-04-30T12:11:50;99156.69;;;23.49;41.18
4745;BME280;2386;42.138;24.746;2023-04-30T12:14:16;99156.22;;;23.39;40.22
4745;BME280;2386;42.138;24.746;2023-04-30T12:16:47;99155.88;;;23.23;38.28
4745;BME280;2386;42.138;24.746;2023-04-30T12:19:17;99158.16;;;23.21;37.61
4745;BME280;2386;42.138;24.746;2023-04-30T12:21:43;99146.78;;;23.14;37.78
4745;BME280;2386;42.138;24.746;2023-04-30T12:24:11;99155.38;;;23.04;38.48
4745;BME280;2386;42.138;24.746;2023-04-30T12:26:37;99157.84;;;22.97;41.13
4745;BME280;2386;42.138;24.746;2023-04-30T12:29:13;99157.53;;;22.89;39.12
4745;BME280;2386;42.138;24.746;2023-04-30T12:31:39;99173.72;;;22.65;38.64
4745;BME280;2386;42.138;24.746;2023-04-30T12:34:07;99183.47;;;22.14;47.92
4745;BME280;2386;42.138;24.746;2023-04-30T12:36:33;99203.81;;;20.79;68.56
4745;BME280;2386;42.138;24.746;2023-04-30T12:39:21;99202.44;;;19.43;78.51
4745;BME280;2386;42.138;24.746;2023-04-30T12:41:48;99205.78;;;18.60;84.83
4745;BME280;2386;42.138;24.746;2023-04-30T12:44:17;99203.13;;;17.78;91.73
4745;BME280;2386;42.138;24.746;2023-04-30T12:46:43;99175.44;;;17.06;99.88
4745;BME280;2386;42.138;24.746;2023-04-30T12:49:09;99204.09;;;16.75;100.00
4745;BME280;2386;42.138;24.746;2023-04-30T12:51:35;99213.44;;;16.59;100.00
4745;BME280;2386;42.138;24.746;2023-04-30T12:54:01;99192.78;;;16.27;100.00
4745;BME280;2386;42.138;24.746;2023-04-30T12:56:26;99188.13;;;16.28;100.00
4745;BME280;2386;42.138;24.746;2023-04-30T12:58:52;99158.84;;;16.28;100.00
4745;BME280;2386;42.138;24.746;2023-04-30T13:01:19;99153.78;;;16.51;100.00
4745;BME280;2386;42.138;24.746;2023-04-30T13:03:46;99145.25;;;16.62;100.00
4745;BME280;2386;42.138;24.746;2023-04-30T13:06:12;99151.00;;;16.71;100.00
4745;BME280;2386;42.138;24.746;2023-04-30T13:08:38;99152.56;;;16.82;100.00
4745;BME280;2386;42.138;24.746;2023-04-30T13:11:03;99154.47;;;16.87;100.00
4745;BME280;2386;42.138;24.746;2023-04-30T13:13:29;99155.78;;;16.94;100.00
4745;BME280;2386;42.138;24.746;2023-04-30T13:15:55;99148.38;;;16.95;100.00
4745;BME280;2386;42.138;24.746;2023-04-30T13:18:20;99150.25;;;17.04;100.00
4745;BME280;2386;42.138;24.746;2023-04-30T13:20:46;99164.97;;;17.08;100.00
4745;BME280;2386;42.138;24.746;2023-04-30T13:23:11;99170.72;;;17.12;100.00
4745;BME280;2386;42.138;24.746;2023-04-30T13:25:38;99174.34;;;17.07;100.00
4745;BME280;2386;42.138;24.746;2023-04-30T13:28:04;99178.66;;;17.14;100.00
4745;BME280;2386;42.138;24.746;2023-04-30T13:30:29;99196.75;;;17.09;100.00
4745;BME280;2386;42.138;24.746;2023-04-30T13:32:55;99190.41;;;16.75;100.00
4745;BME280;2386;42.138;24.746;2023-04-30T13:35:20;99200.03;;;16.67;100.00
4745;BME280;2386;42.138;24.746;2023-04-30T13:37:46;99222.50;;;16.59;100.00